Terminal Aerodrome Forecast
Issued by NWS

Home | Current Version | Previous Version | Text Only | Print | Product List | Glossary On
Versions: 1 2 3 4 5 6 7 8 9 10 11 12 13 14 15 16 17 18 19 20 21 22
320
FTUS46 KLOX 241142
TAFSBP
TAF
KSBP 241142Z 2412/2512 VRB03KT P6SM OVC020
     FM241600 VRB03KT P6SM BKN015 OVC035
     FM242000 30010KT P6SM SCT020 BKN040
     FM250200 31010KT P6SM VCSH BKN020 OVC040
     FM250700 VRB03KT P6SM VCSH BKN020 BKN050=

USA.gov is the U.S. government's official web portal to all federal, state and local government web resources and services.